Time;durP1;ratioP1;P1;durP2;ratioP2;P2;SDS_P1;SDS_P2;PMS_P1;PMS_P2;Temp;Humidity;BMP_temperature;BMP_pressure;BME280_temperature;BME280_humidity;BME280_pressure;Samples;Min_cycle;Max_cycle;Signal;HPM_P1;HPM_P2
2022/03/07 00:01:40;;;;;;;9.45;2.63;;;1.80;99.90;;;;;;5051880;28;20302;-53
2022/03/07 00:04:06;;;;;;;9.82;2.70;;;1.80;99.90;;;;;;5051716;28;20036;-52
2022/03/07 00:06:31;;;;;;;11.50;3.63;;;1.70;99.90;;;;;;5036179;28;20071;-53
2022/03/07 00:08:57;;;;;;;12.23;3.50;;;1.70;99.90;;;;;;5032801;28;20032;-53
2022/03/07 00:11:23;;;;;;;10.07;3.58;;;1.70;99.90;;;;;;5016211;28;20054;-55
2022/03/07 00:13:48;;;;;;;9.43;3.08;;;1.60;99.90;;;;;;5019858;28;20083;-51
2022/03/07 00:16:15;;;;;;;9.68;3.05;;;1.60;99.90;;;;;;5035233;28;20206;-55
2022/03/07 00:18:41;;;;;;;8.30;3.13;;;1.60;99.90;;;;;;5038863;28;20448;-55
2022/03/07 00:21:08;;;;;;;8.45;3.58;;;1.60;99.90;;;;;;5040484;28;20049;-55
2022/03/07 00:23:34;;;;;;;10.15;3.17;;;1.70;99.90;;;;;;5037368;28;20044;-52
2022/03/07 00:26:00;;;;;;;8.73;2.50;;;1.70;99.90;;;;;;5036892;28;20040;-54
2022/03/07 00:28:26;;;;;;;6.78;2.63;;;1.70;99.90;;;;;;5029814;28;20341;-54
2022/03/07 00:30:51;;;;;;;5.30;1.88;;;1.60;99.90;;;;;;5024359;28;20045;-51
2022/03/07 00:33:17;;;;;;;5.90;2.50;;;1.60;99.90;;;;;;5025248;28;20102;-55
2022/03/07 00:35:43;;;;;;;7.20;2.60;;;1.60;99.90;;;;;;5031289;28;20171;-51
2022/03/07 00:38:09;;;;;;;7.00;2.10;;;1.60;99.90;;;;;;5028992;28;20564;-54
2022/03/07 00:40:36;;;;;;;6.32;2.47;;;1.50;99.90;;;;;;5024007;28;20037;-52
2022/03/07 00:43:07;;;;;;;8.80;2.80;;;1.50;99.90;;;;;;5048428;28;20076;-56
2022/03/07 00:45:33;;;;;;;5.05;2.40;;;1.50;99.90;;;;;;5045705;28;20123;-55
2022/03/07 00:47:58;;;;;;;8.30;2.50;;;1.50;99.90;;;;;;5021823;28;20560;-53
2022/03/07 00:50:24;;;;;;;7.00;2.03;;;1.40;99.90;;;;;;5022540;28;20422;-55
2022/03/07 00:52:50;;;;;;;8.23;2.60;;;1.40;99.90;;;;;;5043970;28;20379;-57
2022/03/07 00:55:15;;;;;;;7.07;3.10;;;1.40;99.90;;;;;;5036119;28;20055;-53
2022/03/07 00:57:41;;;;;;;5.28;2.50;;;1.40;99.90;;;;;;5053569;28;20063;-53
2022/03/07 01:00:08;;;;;;;9.07;2.70;;;1.40;99.90;;;;;;5029658;28;20036;-56
2022/03/07 01:02:33;;;;;;;10.73;3.65;;;1.40;99.90;;;;;;5027772;28;20542;-56
2022/03/07 01:05:00;;;;;;;14.75;4.45;;;1.40;99.90;;;;;;5038471;28;20158;-56
2022/03/07 01:07:27;;;;;;;9.05;2.75;;;1.30;99.90;;;;;;5033593;28;20503;-56
2022/03/07 01:09:53;;;;;;;5.07;2.03;;;1.30;99.90;;;;;;5024395;28;20717;-55
2022/03/07 01:12:19;;;;;;;5.78;1.90;;;1.30;99.90;;;;;;5041004;28;20057;-57
2022/03/07 01:14:45;;;;;;;8.10;3.45;;;1.30;99.90;;;;;;5048194;28;20036;-56
2022/03/07 01:17:10;;;;;;;3.95;2.15;;;1.20;99.90;;;;;;5011700;28;20051;-53
2022/03/07 01:19:36;;;;;;;9.77;2.63;;;1.20;99.90;;;;;;5043142;28;20051;-54
2022/03/07 01:22:02;;;;;;;6.93;2.40;;;1.20;99.90;;;;;;5042857;28;20093;-52
2022/03/07 01:24:30;;;;;;;5.18;2.17;;;1.20;99.90;;;;;;5013220;28;20056;-52
2022/03/07 01:26:56;;;;;;;6.75;2.60;;;1.10;99.90;;;;;;5022549;28;20049;-52
2022/03/07 01:29:21;;;;;;;7.03;2.33;;;1.20;99.90;;;;;;5019364;28;20473;-56
2022/03/07 01:31:47;;;;;;;7.25;2.25;;;1.10;99.90;;;;;;5009767;28;20101;-56
2022/03/07 01:34:13;;;;;;;5.68;2.25;;;1.10;99.90;;;;;;5030546;28;20522;-56
2022/03/07 01:36:40;;;;;;;4.57;2.20;;;1.00;99.90;;;;;;5005488;28;20716;-56
2022/03/07 01:39:05;;;;;;;5.72;2.45;;;1.00;99.90;;;;;;5019730;28;20450;-54
2022/03/07 01:41:31;;;;;;;3.47;1.98;;;1.00;99.90;;;;;;5018588;28;20047;-55
2022/03/07 01:43:57;;;;;;;5.53;2.28;;;1.00;99.90;;;;;;5034494;28;20083;-52
2022/03/07 01:46:23;;;;;;;8.05;2.60;;;0.90;99.90;;;;;;5030840;28;20418;-54
2022/03/07 01:48:49;;;;;;;6.65;2.80;;;0.90;99.90;;;;;;5024161;28;20040;-53
2022/03/07 01:51:17;;;;;;;6.07;2.28;;;1.00;99.90;;;;;;5027069;28;20803;-57
2022/03/07 01:53:43;;;;;;;12.05;3.28;;;0.90;99.90;;;;;;5042989;28;20052;-56
2022/03/07 01:56:08;;;;;;;7.35;2.58;;;0.90;99.90;;;;;;5050322;28;20056;-53
2022/03/07 01:58:35;;;;;;;4.35;2.50;;;0.90;99.90;;;;;;5027677;28;20045;-56
2022/03/07 02:01:02;;;;;;;5.80;2.40;;;0.80;99.90;;;;;;5031843;28;20040;-54
2022/03/07 02:03:27;;;;;;;9.40;2.80;;;0.80;99.90;;;;;;5058680;22;20032;-55
2022/03/07 02:05:54;;;;;;;5.97;3.13;;;0.80;99.90;;;;;;5052886;28;21655;-52
2022/03/07 02:08:20;;;;;;;6.90;2.40;;;0.70;99.90;;;;;;5068889;28;20351;-52
2022/03/07 02:10:46;;;;;;;3.65;2.13;;;0.70;99.90;;;;;;5059718;28;20040;-53
2022/03/07 02:13:17;;;;;;;11.07;2.40;;;0.70;99.90;;;;;;5063364;28;20040;-55
2022/03/07 02:15:43;;;;;;;5.78;2.22;;;0.70;99.90;;;;;;5047201;28;20068;-55
2022/03/07 02:18:08;;;;;;;5.55;2.50;;;0.70;99.90;;;;;;5063942;28;20590;-53
2022/03/07 02:20:34;;;;;;;6.28;2.35;;;0.60;99.90;;;;;;5063406;28;20380;-52
2022/03/07 02:23:00;;;;;;;5.40;2.25;;;0.60;99.90;;;;;;5071963;28;20048;-56
2022/03/07 02:25:26;;;;;;;6.88;2.30;;;0.60;99.90;;;;;;5049046;28;20143;-53
2022/03/07 02:27:51;;;;;;;7.57;2.75;;;0.60;99.90;;;;;;5057972;28;20044;-51
2022/03/07 02:30:17;;;;;;;5.03;2.08;;;0.60;99.90;;;;;;5057357;28;20052;-54
2022/03/07 02:32:43;;;;;;;3.80;2.28;;;0.60;99.90;;;;;;5056683;28;20090;-53
2022/03/07 02:35:13;;;;;;;5.00;2.22;;;0.60;99.90;;;;;;5073443;28;20051;-53
2022/03/07 02:37:40;;;;;;;9.25;2.17;;;0.60;99.90;;;;;;5073940;28;20466;-56
2022/03/07 02:40:06;;;;;;;8.75;1.98;;;0.60;99.90;;;;;;5059605;28;20077;-53
2022/03/07 02:42:32;;;;;;;7.63;2.22;;;0.60;99.90;;;;;;5072427;28;20032;-55
2022/03/07 02:44:58;;;;;;;5.78;2.38;;;0.60;99.90;;;;;;5074997;28;21107;-55
2022/03/07 02:47:23;;;;;;;5.60;2.42;;;0.60;99.90;;;;;;5063765;28;20043;-56
2022/03/07 02:49:52;;;;;;;7.03;2.00;;;0.60;99.90;;;;;;5067249;28;20101;-53
2022/03/07 02:52:18;;;;;;;8.55;2.47;;;0.60;99.90;;;;;;5074292;28;20032;-53
2022/03/07 02:54:44;;;;;;;4.53;2.00;;;0.50;99.90;;;;;;5068455;28;20179;-55
2022/03/07 02:57:09;;;;;;;6.40;2.13;;;0.50;99.90;;;;;;5062103;28;20045;-56
2022/03/07 02:59:35;;;;;;;7.38;2.65;;;0.50;99.90;;;;;;5062291;28;20435;-51
2022/03/07 03:02:01;;;;;;;6.03;1.92;;;0.50;99.90;;;;;;5084652;27;20048;-55
2022/03/07 03:04:27;;;;;;;5.47;1.98;;;0.40;99.90;;;;;;5070229;28;20040;-52
2022/03/07 03:06:53;;;;;;;5.35;2.35;;;0.40;99.90;;;;;;5051053;28;20059;-53
2022/03/07 03:09:19;;;;;;;8.93;3.78;;;0.40;99.90;;;;;;5064360;28;20044;-56
2022/03/07 03:11:44;;;;;;;6.90;2.50;;;0.30;99.90;;;;;;5063846;28;20140;-57
2022/03/07 03:14:10;;;;;;;4.38;2.15;;;0.30;99.90;;;;;;5058405;28;20452;-55
2022/03/07 03:16:36;;;;;;;6.72;2.03;;;0.30;99.90;;;;;;5069548;28;20036;-55
2022/03/07 03:19:02;;;;;;;6.35;2.15;;;0.30;99.90;;;;;;5061613;28;20047;-55
2022/03/07 03:21:28;;;;;;;8.85;2.00;;;0.30;99.90;;;;;;5046162;28;20104;-55
2022/03/07 03:23:54;;;;;;;4.65;2.30;;;0.20;99.90;;;;;;5069670;28;20052;-52
2022/03/07 03:26:20;;;;;;;8.48;2.45;;;0.20;99.90;;;;;;5037220;28;20131;-55
2022/03/07 03:28:46;;;;;;;5.20;2.10;;;0.20;99.90;;;;;;5075422;27;22166;-57
2022/03/07 03:31:11;;;;;;;4.07;2.08;;;0.20;99.90;;;;;;5067815;28;20037;-53
2022/03/07 03:33:38;;;;;;;6.53;2.03;;;0.20;99.90;;;;;;5058065;28;20051;-56
2022/03/07 03:36:05;;;;;;;5.35;2.45;;;0.20;99.90;;;;;;5051208;28;20090;-55
2022/03/07 03:38:31;;;;;;;6.97;2.45;;;0.10;99.90;;;;;;5066660;28;20048;-56
2022/03/07 03:40:56;;;;;;;7.18;2.65;;;0.10;99.90;;;;;;5063274;28;20051;-56
2022/03/07 03:43:22;;;;;;;6.15;2.38;;;0.10;99.90;;;;;;5043126;28;20253;-52
2022/03/07 03:45:48;;;;;;;4.93;1.83;;;0.10;99.90;;;;;;5060532;28;20048;-52
2022/03/07 03:48:14;;;;;;;5.13;1.90;;;0.10;99.90;;;;;;5076703;28;20058;-54
2022/03/07 03:50:40;;;;;;;5.95;2.63;;;0.10;99.90;;;;;;5057522;28;20093;-55
2022/03/07 03:53:05;;;;;;;9.27;2.80;;;0.10;99.90;;;;;;5058467;28;20343;-55
2022/03/07 03:55:31;;;;;;;5.68;2.78;;;0.10;99.90;;;;;;5067779;28;20043;-56
2022/03/07 03:57:57;;;;;;;8.95;3.25;;;0.10;99.90;;;;;;5046491;28;20043;-51
2022/03/07 04:00:24;;;;;;;10.75;4.57;;;0.10;99.90;;;;;;5057649;28;20618;-52
2022/03/07 04:02:50;;;;;;;11.73;4.82;;;0.10;99.90;;;;;;5051137;28;20036;-52
2022/03/07 04:05:16;;;;;;;15.07;6.25;;;0.10;99.90;;;;;;5051893;28;20239;-55
2022/03/07 04:07:43;;;;;;;16.92;6.60;;;0.00;99.90;;;;;;5070551;28;20045;-56
2022/03/07 04:10:13;;;;;;;22.17;7.38;;;0.10;99.90;;;;;;5070357;28;20097;-54
2022/03/07 04:12:39;;;;;;;17.98;6.03;;;0.10;99.90;;;;;;5053394;28;20040;-55
2022/03/07 04:15:06;;;;;;;12.02;5.00;;;0.10;99.90;;;;;;5050979;28;20189;-53
2022/03/07 04:17:32;;;;;;;14.57;5.57;;;0.10;99.90;;;;;;5070135;28;20044;-54
2022/03/07 04:19:57;;;;;;;19.98;5.85;;;0.10;99.90;;;;;;5073667;28;20544;-53
2022/03/07 04:22:23;;;;;;;11.93;5.13;;;0.00;99.90;;;;;;5071759;28;20371;-55
2022/03/07 04:24:49;;;;;;;15.25;5.63;;;0.00;99.90;;;;;;5083836;28;22294;-54
2022/03/07 04:27:14;;;;;;;20.85;7.03;;;0.00;99.90;;;;;;5045202;28;20095;-52
2022/03/07 04:29:40;;;;;;;19.13;7.68;;;-0.10;99.90;;;;;;5067495;28;20051;-56
2022/03/07 04:32:06;;;;;;;14.90;6.43;;;-0.10;99.90;;;;;;5062370;28;20043;-56
2022/03/07 04:34:32;;;;;;;14.70;6.75;;;-0.10;99.90;;;;;;5056342;28;20555;-55
2022/03/07 04:36:57;;;;;;;16.95;7.80;;;-0.10;99.90;;;;;;5066643;28;20040;-55
2022/03/07 04:39:23;;;;;;;15.60;6.60;;;-0.10;99.90;;;;;;5049701;28;20048;-52
2022/03/07 04:41:49;;;;;;;18.13;6.55;;;-0.10;99.90;;;;;;5068407;28;20040;-55
2022/03/07 04:44:15;;;;;;;15.73;6.32;;;-0.10;99.90;;;;;;5070723;28;20051;-52
2022/03/07 04:46:41;;;;;;;13.05;6.03;;;-0.20;99.90;;;;;;5066061;28;20051;-54
2022/03/07 04:49:10;;;;;;;16.92;7.43;;;-0.20;99.90;;;;;;5057973;28;20038;-54
2022/03/07 04:51:36;;;;;;;14.85;5.13;;;-0.20;99.90;;;;;;5064245;28;20049;-55
2022/03/07 04:54:01;;;;;;;15.68;6.03;;;-0.20;99.90;;;;;;5065811;28;20148;-53
2022/03/07 04:56:27;;;;;;;12.95;5.57;;;-0.20;99.90;;;;;;5065506;28;20036;-56
2022/03/07 04:58:53;;;;;;;12.77;5.38;;;-0.20;99.90;;;;;;5061898;28;20181;-55
2022/03/07 05:01:19;;;;;;;15.00;6.85;;;-0.30;99.90;;;;;;5066514;28;20047;-51
2022/03/07 05:03:44;;;;;;;17.45;5.45;;;-0.30;99.90;;;;;;5046997;28;20420;-52
2022/03/07 05:06:10;;;;;;;15.48;5.88;;;-0.30;99.90;;;;;;5070518;28;20160;-52
2022/03/07 05:08:39;;;;;;;14.40;6.47;;;-0.30;99.90;;;;;;5066665;28;20172;-56
2022/03/07 05:11:05;;;;;;;13.57;6.40;;;-0.40;99.90;;;;;;5066029;28;20039;-53
2022/03/07 05:13:31;;;;;;;11.43;5.28;;;-0.40;99.90;;;;;;5051745;28;20097;-55
2022/03/07 05:15:57;;;;;;;14.90;5.30;;;-0.40;99.90;;;;;;5069496;28;20517;-51
2022/03/07 05:18:23;;;;;;;15.57;5.72;;;-0.50;99.90;;;;;;5069160;28;20040;-52
2022/03/07 05:20:49;;;;;;;13.27;5.35;;;-0.40;99.90;;;;;;5063534;28;20093;-55
2022/03/07 05:23:14;;;;;;;12.13;5.25;;;-0.40;99.90;;;;;;5062408;28;20039;-52
2022/03/07 05:25:40;;;;;;;15.38;6.65;;;-0.40;99.90;;;;;;5069245;28;20090;-52
2022/03/07 05:28:06;;;;;;;14.65;5.07;;;-0.50;99.90;;;;;;5074300;28;20467;-56
2022/03/07 05:30:32;;;;;;;13.68;6.38;;;-0.50;99.90;;;;;;5052995;28;20032;-55
2022/03/07 05:32:57;;;;;;;12.63;5.28;;;-0.50;99.90;;;;;;5066703;28;20366;-55
2022/03/07 05:35:23;;;;;;;14.35;6.07;;;-0.50;99.90;;;;;;5059590;28;20043;-55
2022/03/07 05:37:49;;;;;;;12.90;5.13;;;-0.50;99.90;;;;;;5072429;28;20398;-56
2022/03/07 05:40:16;;;;;;;8.85;4.13;;;-0.50;99.90;;;;;;5057320;28;20047;-52
2022/03/07 05:42:42;;;;;;;10.18;5.00;;;-0.50;99.90;;;;;;5050394;28;20054;-54
2022/03/07 05:45:10;;;;;;;9.60;4.57;;;-0.60;99.90;;;;;;5064435;28;20549;-53
2022/03/07 05:47:36;;;;;;;11.43;5.25;;;-0.60;99.90;;;;;;5073121;28;20044;-55
2022/03/07 05:50:02;;;;;;;9.82;4.93;;;-0.60;99.90;;;;;;5056428;28;20059;-55
2022/03/07 05:52:28;;;;;;;13.13;5.15;;;-0.60;99.90;;;;;;5061971;28;20036;-55
2022/03/07 05:54:54;;;;;;;10.65;4.32;;;-0.60;99.90;;;;;;5059999;28;20051;-55
2022/03/07 05:57:20;;;;;;;10.45;4.50;;;-0.60;99.90;;;;;;5068390;28;20490;-56
2022/03/07 05:59:46;;;;;;;9.40;4.75;;;-0.60;99.90;;;;;;5060129;28;20070;-55
2022/03/07 06:02:12;;;;;;;9.07;4.50;;;-0.60;99.90;;;;;;5073146;28;20189;-55
2022/03/07 06:04:38;;;;;;;7.72;4.00;;;-0.60;99.90;;;;;;5068205;28;20108;-56
2022/03/07 06:07:03;;;;;;;10.00;4.70;;;-0.60;99.90;;;;;;5084399;27;20314;-54
2022/03/07 06:09:29;;;;;;;7.97;4.00;;;-0.60;99.90;;;;;;5069890;28;20125;-54
2022/03/07 06:11:55;;;;;;;10.75;3.75;;;-0.60;99.90;;;;;;5053548;28;20040;-53
2022/03/07 06:14:21;;;;;;;6.55;3.22;;;-0.60;99.90;;;;;;5065372;28;20048;-56
2022/03/07 06:16:46;;;;;;;7.18;3.67;;;-0.70;99.90;;;;;;5055793;28;20036;-56
2022/03/07 06:19:12;;;;;;;10.13;4.07;;;-0.70;99.90;;;;;;5078823;27;20181;-56
2022/03/07 06:21:38;;;;;;;9.32;4.22;;;-0.70;99.90;;;;;;5063483;28;20436;-57
2022/03/07 06:24:04;;;;;;;10.60;3.92;;;-0.60;99.90;;;;;;5078271;27;20105;-56
2022/03/07 06:26:30;;;;;;;9.32;3.72;;;-0.60;99.90;;;;;;5057482;28;20040;-55
2022/03/07 06:28:55;;;;;;;10.57;4.20;;;-0.60;99.90;;;;;;5053044;28;20050;-56
2022/03/07 06:31:21;;;;;;;9.68;4.03;;;-0.60;99.90;;;;;;5061806;28;20040;-55
2022/03/07 06:33:47;;;;;;;9.10;3.50;;;-0.60;99.90;;;;;;5062070;28;20470;-55
2022/03/07 06:36:13;;;;;;;8.40;4.43;;;-0.60;99.90;;;;;;5060082;28;22547;-57
2022/03/07 06:38:39;;;;;;;11.45;4.78;;;-0.50;99.90;;;;;;5064380;28;20032;-52
2022/03/07 06:41:06;;;;;;;8.13;4.10;;;-0.50;99.90;;;;;;5090518;27;20052;-56
2022/03/07 06:43:33;;;;;;;8.38;4.32;;;-0.50;99.90;;;;;;5029064;28;20495;-54
2022/03/07 06:45:59;;;;;;;9.18;4.85;;;-0.50;99.90;;;;;;5070643;28;20478;-55
2022/03/07 06:48:24;;;;;;;7.57;4.32;;;-0.40;99.90;;;;;;5046998;28;20040;-56
2022/03/07 06:50:50;;;;;;;10.20;5.13;;;-0.40;99.90;;;;;;5057022;28;20605;-57
2022/03/07 06:53:16;;;;;;;10.32;6.10;;;-0.20;99.90;;;;;;5046033;28;20521;-56
2022/03/07 06:55:42;;;;;;;9.75;5.82;;;-0.10;99.90;;;;;;5058693;28;20067;-57
2022/03/07 06:58:08;;;;;;;10.70;4.60;;;0.10;99.90;;;;;;5066854;28;20146;-56
2022/03/07 07:00:34;;;;;;;12.07;4.70;;;0.30;99.90;;;;;;5068672;28;20036;-52
2022/03/07 07:02:59;;;;;;;9.15;4.10;;;0.80;99.90;;;;;;5069800;28;20043;-55
2022/03/07 07:05:25;;;;;;;11.48;5.00;;;1.10;99.90;;;;;;5065885;28;20550;-57
2022/03/07 07:07:51;;;;;;;14.30;4.93;;;1.50;99.90;;;;;;5064753;28;20032;-54
2022/03/07 07:10:20;;;;;;;13.27;5.18;;;2.00;99.90;;;;;;5050809;28;20100;-56
2022/03/07 07:12:47;;;;;;;11.60;4.47;;;2.60;99.90;;;;;;5057062;28;20036;-54
2022/03/07 07:15:13;;;;;;;12.27;5.22;;;3.00;99.90;;;;;;5065775;28;20239;-54
2022/03/07 07:17:40;;;;;;;8.50;4.10;;;3.10;99.90;;;;;;5064413;28;21244;-55
2022/03/07 07:20:07;;;;;;;5.65;3.78;;;3.00;99.90;;;;;;5073241;28;20051;-52
2022/03/07 07:22:33;;;;;;;14.40;4.47;;;2.70;99.90;;;;;;5061388;28;20109;-53
2022/03/07 07:24:59;;;;;;;8.68;4.50;;;2.50;99.90;;;;;;5061454;28;20035;-58
2022/03/07 07:27:25;;;;;;;8.65;4.68;;;2.30;99.90;;;;;;5051275;28;20123;-55
2022/03/07 07:29:51;;;;;;;13.18;7.18;;;2.20;99.90;;;;;;5058274;28;20059;-56
2022/03/07 07:32:16;;;;;;;33.17;17.73;;;2.20;99.90;;;;;;5059223;28;20064;-56
2022/03/07 07:34:42;;;;;;;16.95;8.35;;;2.20;99.90;;;;;;5065661;28;20357;-57
2022/03/07 07:37:08;;;;;;;38.78;19.15;;;2.20;99.90;;;;;;5036990;28;20039;-54
2022/03/07 07:39:34;;;;;;;17.88;6.50;;;2.20;99.90;;;;;;5041527;28;20469;-52
2022/03/07 07:42:00;;;;;;;26.55;8.40;;;2.20;99.90;;;;;;5068982;28;20041;-52
2022/03/07 07:44:26;;;;;;;20.05;7.70;;;2.20;99.90;;;;;;5065275;28;20032;-55
2022/03/07 07:46:53;;;;;;;278.73;38.28;;;2.20;99.90;;;;;;5071229;28;20108;-56
2022/03/07 07:49:19;;;;;;;205.77;27.83;;;2.20;99.90;;;;;;5048922;28;20483;-54
2022/03/07 07:51:45;;;;;;;863.55;146.70;;;2.30;99.90;;;;;;5062089;28;20366;-55
2022/03/07 07:54:11;;;;;;;768.20;123.47;;;2.30;99.90;;;;;;5066789;28;20608;-53
2022/03/07 07:56:36;;;;;;;523.15;70.45;;;2.40;99.90;;;;;;5076524;28;20047;-55
2022/03/07 07:59:02;;;;;;;85.03;15.95;;;2.60;99.90;;;;;;5056547;28;20328;-54
2022/03/07 08:01:29;;;;;;;25.20;7.78;;;2.70;99.90;;;;;;5073395;28;20487;-56
2022/03/07 08:03:55;;;;;;;28.55;7.43;;;2.90;99.90;;;;;;5076812;28;20266;-57
2022/03/07 08:06:21;;;;;;;14.57;7.80;;;3.00;99.90;;;;;;5077998;28;20038;-56
2022/03/07 08:08:46;;;;;;;66.53;15.57;;;3.10;99.90;;;;;;5075949;28;20028;-56
2022/03/07 08:11:12;;;;;;;22.80;9.60;;;3.20;99.90;;;;;;5077104;28;20132;-56
2022/03/07 08:13:39;;;;;;;9.35;5.28;;;3.40;99.90;;;;;;5062193;28;20059;-57
2022/03/07 08:16:05;;;;;;;28.92;7.85;;;3.60;99.90;;;;;;5065141;28;20042;-57
2022/03/07 08:18:31;;;;;;;17.15;5.55;;;3.70;99.90;;;;;;5077057;28;20415;-53
2022/03/07 08:20:59;;;;;;;11.70;5.88;;;3.90;99.90;;;;;;5072715;28;20079;-54
2022/03/07 08:23:26;;;;;;;15.10;6.65;;;4.00;99.90;;;;;;5082707;28;20051;-54
2022/03/07 08:25:52;;;;;;;19.58;7.38;;;4.00;99.90;;;;;;5073844;28;20036;-57
2022/03/07 08:28:18;;;;;;;16.17;8.10;;;4.00;99.90;;;;;;5081066;28;20043;-61
2022/03/07 08:30:44;;;;;;;18.52;7.63;;;4.10;99.90;;;;;;5043383;28;20040;-54
2022/03/07 08:33:10;;;;;;;13.35;7.43;;;4.10;99.90;;;;;;5089343;28;20127;-56
2022/03/07 08:35:35;;;;;;;16.40;8.18;;;4.00;99.90;;;;;;5079143;28;20211;-55
2022/03/07 08:38:02;;;;;;;13.98;7.47;;;4.00;99.90;;;;;;5078494;28;20274;-53
2022/03/07 08:40:28;;;;;;;11.35;8.18;;;4.20;99.90;;;;;;5080347;28;20375;-52
2022/03/07 08:42:54;;;;;;;18.25;9.68;;;4.30;99.90;;;;;;5082855;28;20448;-61
2022/03/07 08:45:22;;;;;;;14.10;8.68;;;4.50;99.90;;;;;;5044202;28;20522;-57
2022/03/07 08:47:48;;;;;;;14.20;8.10;;;4.60;99.90;;;;;;5060520;28;20527;-55
2022/03/07 08:50:16;;;;;;;18.45;8.00;;;4.70;99.90;;;;;;5079899;28;20072;-57
2022/03/07 08:52:42;;;;;;;12.70;6.47;;;4.70;99.90;;;;;;5079554;28;20061;-57
2022/03/07 08:55:08;;;;;;;16.40;6.43;;;4.90;99.90;;;;;;5070054;28;20048;-53
2022/03/07 08:57:35;;;;;;;10.82;6.82;;;4.90;99.90;;;;;;5078207;28;20254;-59
2022/03/07 09:00:01;;;;;;;10.95;5.22;;;5.00;99.90;;;;;;5063558;28;20063;-55
2022/03/07 09:02:26;;;;;;;19.42;7.80;;;5.10;99.90;;;;;;5057540;28;20043;-54
2022/03/07 09:04:52;;;;;;;10.07;5.03;;;5.20;99.90;;;;;;5077480;28;20167;-57
2022/03/07 09:07:18;;;;;;;15.68;6.15;;;5.20;99.90;;;;;;5062966;28;20135;-52
2022/03/07 09:09:44;;;;;;;12.02;5.50;;;5.30;99.90;;;;;;5060926;28;20120;-52
2022/03/07 09:12:09;;;;;;;9.93;4.50;;;5.40;99.90;;;;;;5078842;28;20368;-61
2022/03/07 09:14:35;;;;;;;8.35;4.05;;;5.60;99.90;;;;;;5071496;28;20091;-59
2022/03/07 09:17:01;;;;;;;7.95;4.25;;;5.60;99.90;;;;;;5084855;28;20507;-56
2022/03/07 09:19:28;;;;;;;7.88;3.65;;;5.70;99.90;;;;;;5072415;28;20128;-56
2022/03/07 09:21:54;;;;;;;7.60;3.80;;;5.80;99.90;;;;;;5074498;28;20044;-58
2022/03/07 09:24:20;;;;;;;4.80;3.30;;;5.90;99.90;;;;;;5056130;28;20511;-57
2022/03/07 09:26:53;;;;;;;7.55;3.30;;;6.00;99.90;;;;;;5090977;28;20040;-56
2022/03/07 09:29:19;;;;;;;7.83;2.00;;;6.20;99.90;;;;;;5059048;28;20040;-56
2022/03/07 09:31:45;;;;;;;5.18;2.88;;;6.20;99.90;;;;;;5073405;28;20090;-58
2022/03/07 09:34:12;;;;;;;9.82;3.17;;;6.30;99.90;;;;;;5071935;28;20040;-57
2022/03/07 09:36:38;;;;;;;7.47;4.13;;;6.50;99.90;;;;;;5073405;28;20044;-54
2022/03/07 09:39:05;;;;;;;9.02;3.47;;;6.40;99.90;;;;;;5059865;28;20087;-52
2022/03/07 09:41:31;;;;;;;6.13;3.30;;;6.20;99.90;;;;;;5078702;28;20298;-58
2022/03/07 09:43:56;;;;;;;7.22;3.22;;;6.30;99.90;;;;;;5094515;28;20438;-58
2022/03/07 09:46:22;;;;;;;5.10;3.22;;;6.40;99.90;;;;;;5070346;28;20036;-53
2022/03/07 09:48:48;;;;;;;5.47;2.95;;;6.60;99.90;;;;;;5076565;28;20079;-53
2022/03/07 09:51:14;;;;;;;7.63;4.03;;;6.70;99.90;;;;;;5070786;28;20047;-55
2022/03/07 09:53:39;;;;;;;9.93;3.72;;;6.80;99.90;;;;;;5077966;28;20070;-56
2022/03/07 09:56:05;;;;;;;7.57;3.20;;;6.80;99.80;;;;;;5076301;28;20453;-69
2022/03/07 09:58:32;;;;;;;4.85;3.03;;;6.80;99.90;;;;;;5058783;28;20040;-57
2022/03/07 10:01:10;;;;;;;6.75;3.25;;;7.00;99.90;;;;;;5084216;28;20525;-53
2022/03/07 10:03:35;;;;;;;33.70;7.07;;;7.10;99.90;;;;;;5074520;28;20043;-54
2022/03/07 10:06:02;;;;;;;9.07;4.22;;;7.40;99.90;;;;;;5078278;28;20271;-51
2022/03/07 10:08:29;;;;;;;7.85;3.53;;;7.60;99.90;;;;;;5069452;28;20391;-61
2022/03/07 10:10:56;;;;;;;8.00;4.18;;;7.70;98.80;;;;;;5073834;28;20051;-57
2022/03/07 10:13:23;;;;;;;5.95;2.80;;;7.60;98.80;;;;;;5077594;28;20047;-54
2022/03/07 10:16:04;;;;;;;6.50;3.15;;;7.90;99.10;;;;;;5075292;28;20462;-55
2022/03/07 10:18:30;;;;;;;7.10;2.22;;;8.20;99.50;;;;;;5072032;28;20063;-58
2022/03/07 10:21:02;;;;;;;6.57;2.55;;;8.30;98.90;;;;;;5069392;28;20068;-60
2022/03/07 10:23:28;;;;;;;6.35;2.80;;;8.40;98.30;;;;;;5071709;28;20048;-55
2022/03/07 10:26:15;;;;;;;7.97;2.38;;;8.50;97.90;;;;;;5072677;28;20040;-56
2022/03/07 10:28:41;;;;;;;4.00;1.83;;;8.30;97.70;;;;;;5072175;28;20134;-55
2022/03/07 10:31:17;;;;;;;10.20;2.60;;;8.10;97.50;;;;;;5077100;28;20293;-59
2022/03/07 10:33:47;;;;;;;6.18;2.30;;;8.00;97.90;;;;;;5073015;28;20041;-54
2022/03/07 10:36:13;;;;;;;4.70;1.85;;;7.90;97.90;;;;;;5070064;28;20036;-55
2022/03/07 10:38:41;;;;;;;5.70;2.65;;;8.00;98.20;;;;;;5059303;28;20382;-51
2022/03/07 10:41:08;;;;;;;8.18;3.13;;;8.20;98.20;;;;;;5075840;28;20052;-62
2022/03/07 10:43:45;;;;;;;4.03;2.50;;;8.40;98.20;;;;;;5061506;28;20805;-59
2022/03/07 10:46:11;;;;;;;7.00;2.88;;;8.60;98.00;;;;;;5074549;28;20052;-54
2022/03/07 10:48:42;;;;;;;4.93;3.00;;;8.60;97.60;;;;;;5087182;28;20043;-56
2022/03/07 10:51:18;;;;;;;6.18;2.53;;;8.80;97.20;;;;;;5089618;27;20040;-56
2022/03/07 10:53:45;;;;;;;6.90;2.90;;;8.90;95.90;;;;;;5067955;28;20046;-59
2022/03/07 10:56:14;;;;;;;4.38;2.00;;;9.10;96.40;;;;;;5095505;27;20119;-54
2022/03/07 10:58:52;;;;;;;7.20;2.63;;;9.10;96.30;;;;;;5072757;28;20041;-57
2022/03/07 11:01:29;;;;;;;4.72;2.40;;;9.30;96.50;;;;;;5078624;28;20048;-57
2022/03/07 11:03:55;;;;;;;6.30;2.72;;;9.50;96.40;;;;;;5082563;28;20089;-61
2022/03/07 11:06:21;;;;;;;9.98;2.65;;;9.60;95.50;;;;;;5083442;28;20192;-55
2022/03/07 11:08:47;;;;;;;5.93;2.53;;;9.50;94.50;;;;;;5058915;28;20403;-53
2022/03/07 11:11:13;;;;;;;8.50;2.92;;;9.40;94.60;;;;;;5081320;28;20163;-56
2022/03/07 11:13:41;;;;;;;5.15;2.28;;;9.50;95.40;;;;;;5080358;28;20567;-52
2022/03/07 11:16:07;;;;;;;5.28;2.70;;;9.70;95.20;;;;;;5059630;28;20317;-58
2022/03/07 11:18:33;;;;;;;7.70;2.78;;;9.80;94.90;;;;;;5068478;28;20505;-57
2022/03/07 11:21:02;;;;;;;5.68;2.70;;;9.90;94.20;;;;;;5058707;28;20044;-59
2022/03/07 11:23:28;;;;;;;5.85;2.40;;;9.80;93.90;;;;;;5073270;28;20108;-54
2022/03/07 11:25:57;;;;;;;4.85;2.38;;;9.60;93.80;;;;;;5058426;28;20713;-54
2022/03/07 11:28:26;;;;;;;6.78;2.30;;;9.70;93.70;;;;;;5077162;28;20036;-56
2022/03/07 11:30:53;;;;;;;6.25;2.63;;;9.60;93.10;;;;;;5059170;28;20040;-60
2022/03/07 11:33:23;;;;;;;6.03;2.40;;;9.90;93.90;;;;;;5091608;28;20097;-55
2022/03/07 11:35:53;;;;;;;5.68;2.55;;;10.10;93.30;;;;;;5080400;28;20495;-54
2022/03/07 11:38:20;;;;;;;6.38;2.30;;;10.20;92.40;;;;;;5064431;28;20435;-55
2022/03/07 11:41:07;;;;;;;4.85;2.40;;;10.30;92.10;;;;;;5079263;28;20062;-57
2022/03/07 11:43:46;;;;;;;7.35;2.03;;;10.60;92.80;;;;;;5079299;28;20456;-58
2022/03/07 11:46:27;;;;;;;7.03;2.50;;;11.00;92.20;;;;;;5057000;28;20498;-55
2022/03/07 11:48:54;;;;;;;4.07;1.95;;;11.30;90.20;;;;;;5054642;28;20456;-57
2022/03/07 11:51:25;;;;;;;5.38;1.80;;;11.10;88.40;;;;;;5074649;28;20132;-54
2022/03/07 11:53:53;;;;;;;6.50;2.00;;;11.00;88.50;;;;;;5080135;28;20482;-54
2022/03/07 11:56:24;;;;;;;4.60;1.92;;;11.10;89.30;;;;;;5061325;28;20121;-53
2022/03/07 11:58:55;;;;;;;5.95;2.22;;;11.30;87.50;;;;;;5074003;28;20052;-56
2022/03/07 12:01:23;;;;;;;3.75;1.85;;;11.50;87.90;;;;;;5079352;28;20391;-56
2022/03/07 12:03:49;;;;;;;5.43;2.00;;;11.60;87.20;;;;;;5065229;28;20105;-53
2022/03/07 12:06:17;;;;;;;4.82;2.05;;;11.90;86.20;;;;;;5080583;28;20518;-52
2022/03/07 12:08:52;;;;;;;3.88;1.75;;;11.80;83.80;;;;;;5076255;28;20121;-56
2022/03/07 12:11:30;;;;;;;7.22;2.17;;;11.80;82.90;;;;;;5074167;28;20036;-62
2022/03/07 12:14:02;;;;;;;5.70;2.05;;;11.90;82.70;;;;;;5073524;28;20594;-52
2022/03/07 12:16:39;;;;;;;4.55;1.67;;;12.00;81.40;;;;;;5075200;28;20042;-53
2022/03/07 12:19:15;;;;;;;4.47;1.65;;;12.00;80.30;;;;;;5080569;28;20477;-53
2022/03/07 12:21:43;;;;;;;4.57;1.70;;;12.10;80.00;;;;;;5075069;28;20055;-52
2022/03/07 12:24:12;;;;;;;4.15;1.70;;;12.10;78.90;;;;;;5082684;28;20044;-57
2022/03/07 12:26:46;;;;;;;4.68;1.70;;;12.10;77.40;;;;;;5082074;28;20040;-53
2022/03/07 12:29:17;;;;;;;5.15;2.03;;;12.10;76.00;;;;;;5078996;28;20036;-54
2022/03/07 12:32:11;;;;;;;4.90;1.83;;;12.20;76.50;;;;;;5076514;28;20032;-55
2022/03/07 12:34:40;;;;;;;4.97;1.73;;;12.20;73.70;;;;;;5070554;28;20052;-52
2022/03/07 12:37:17;;;;;;;3.88;1.80;;;11.90;76.90;;;;;;5098927;28;20347;-52
2022/03/07 12:39:50;;;;;;;5.63;1.85;;;12.10;77.50;;;;;;5057473;28;20044;-56
2022/03/07 12:42:19;;;;;;;3.88;2.13;;;12.30;74.90;;;;;;5075690;28;20453;-55
2022/03/07 12:44:45;;;;;;;3.38;1.88;;;12.10;75.00;;;;;;5077260;28;20048;-53
2022/03/07 12:47:12;;;;;;;4.55;1.70;;;12.10;74.10;;;;;;5076116;28;20466;-54
2022/03/07 12:49:38;;;;;;;4.68;1.90;;;12.20;75.60;;;;;;5083045;28;20031;-57